Tiempo atmosférico en la estación meteorológica de San Roque, Cádiz (1 m.)



Fecha
DESCASC
Temp. máxima en grados centígrados (hora)
DESCASC
Temp. mínima en grados centígrados (hora)
DESCASC
Temp. media en grados centígrados
DESCASC
Racha de viento máxima en m/sg (hora)
DESCASC
Velocidad máxima media en intervalos de 10 minutos(hora)
DESCASC
Precipitaciones diarias en mm
DESCASC
Precipitaciones de 00:00 a 06:00 en mm
DESCASC
Precipitaciones de 06:00 a 12:00 en mm
DESCASC
Precipitaciones de 12:00 a 18:00 en mm
DESCASC
Precipitaciones de 18:00 a 24:00 en mm
DESCASC
18-08-2019 35.6 (17:20) 17.9 (07:20) 26.7 11.39 (23:40) 7.78 (23:59) 0 0 0 0 0
17-08-2019 25.1 (15:00) 18.5 (04:30) 21.8 3.33 (12:10) 2.22 (15:40) 0 0 0 0 0
16-08-2019 25.2 (18:30) 17.3 (06:50) 21.3 3.61 (09:30) 2.5 (08:30) 0 0 0 0 0
15-08-2019 25.2 (14:10) 19.7 (00:00) 22.5 3.33 (14:40) 2.5 (14:40) 0 0 0 0 0
14-08-2019 26.1 (14:40) 20.1 (00:00) 23.1 7.78 (14:00) 4.17 (12:50) 0 0 0 0 0
13-08-2019 26.2 (17:30) 19.4 (00:00) 22.8 7.78 (08:00) 5.56 (08:10) 0 0 0 0 0
12-08-2019 34.9 (16:00) 21.7 (00:00) 28.3 11.11 (18:40) 7.78 (16:30) 0 0 0 0 0
11-08-2019 35.3 (16:40) 22.4 (00:00) 28.8 15.28 (01:20) 10.83 (01:20) 0 0 0 0 0
10-08-2019 38.2 (16:50) 23 (00:00) 30.6 16.39 (01:40) 11.39 (01:40) 0 0 0 0 0
09-08-2019 36.3 (15:20) 21.9 (00:00) 29.1 13.89 (22:50) 8.89 (22:50) 0 0 0 0 0
08-08-2019 32 (11:30) 23.1 (00:00) 27.6 11.67 (02:20) 8.61 (02:20) 0 0 0 0 0
07-08-2019 37.7 (17:00) 21.3 (00:00) 29.5 11.94 (10:20) 8.89 (10:20) 0 0 0 0 0
06-08-2019 30.3 (19:00) 18.5 (00:00) 24.4 8.89 (00:40) 6.94 (18:10) 0 0 0 0 0
05-08-2019 26.2 (23:40) 18.5 (00:00) 22.4 8.06 (14:40) 5.28 (14:20) 0 0 0 0 0
04-08-2019 31.3 (11:50) 19.2 (00:00) 25.3 9.72 (14:20) 7.78 (16:30) 0 0 0 0 0
03-08-2019 25.6 (16:20) 19.8 (00:00) 22.7 5 (02:10) 3.33 (15:30) 0 0 0 0 0
02-08-2019 28.4 (10:50) 18.7 (00:00) 23.6 8.33 (12:00) 6.67 (12:20) 0 0 0 0 0
01-08-2019 27.3 (16:40) 20.9 (00:00) 24.1 5.56 (22:30) 3.61 (22:20) 0 0 0 0 0
31-07-2019 25.9 (19:00) 20.1 (00:00) 23 7.78 (03:30) 4.17 (03:30) 0 0 0 0 0
30-07-2019 26.9 (00:10) 20.3 (00:00) 23.6 8.61 (02:30) 6.39 (02:40) 0 0 0 0 0
29-07-2019 35 (17:50) 20.1 (00:00) 27.6 13.06 (17:00) 7.22 (04:10) 0 0 0 0 0
28-07-2019 31.3 (18:00) 20.3 (00:00) 25.8 12.5 (16:30) 7.78 (15:30) 0 0 0 0 0
27-07-2019 29.8 (14:50) 19.6 (00:00) 24.7 14.72 (15:10) 9.17 (15:30) 0 0 0 0 0
26-07-2019 32.5 (15:50) 20.8 (00:00) 26.6 13.61 (14:40) 10 (14:40) 0 0 0 0 0
25-07-2019 27 (17:40) 19.8 (00:00) 23.4 5.56 (14:20) 4.17 (13:40) 0 0 0 0 0
24-07-2019 29.4 (16:40) 21.6 (00:00) 25.5 4.72 (00:40) 3.33 (00:40) 0 0 0 0 0
23-07-2019 28.3 (18:00) 22.7 (00:00) 25.5 7.5 (10:50) 4.72 (10:50) 0 0 0 0 0
22-07-2019 27.2 (14:40) 22.3 (00:00) 24.8 7.5 (23:59) 5 (16:20) 0 0 0 0 0
21-07-2019 26.6 (17:00) 20.3 (00:00) 23.4 5.56 (23:30) 3.89 (23:30) 0 0 0 0 0

Gráficas

Temp. máximas Temp. mínimas Temp. medias Precipitaciones Rachas de viento máximas Velocidades máximas media en intervalos de 10 minutos

Datos horarios

Fecha y hora oficial Temperatura (ºC) Velocidad del viento (km/h) Dirección del viento Racha (km/h) Dirección de racha Precipitación (mm) Presión (hPa) Tendencia (hPa) Humedad (%)
2019-08-19 23:00:00 25.7 24 Oeste 38 Oeste 0 -- -- 51
2019-08-19 22:00:00 27.2 22 Oeste 41 Oeste 0 -- -- 41
2019-08-19 21:00:00 29.8 24 Oeste 40 Oeste 0 -- -- 40
2019-08-19 20:00:00 32.7 25 Oeste 38 Oeste 0 -- -- 37
2019-08-19 19:00:00 34.9 22 Oeste 36 Oeste 0 -- -- 37
2019-08-19 18:00:00 35.2 26 Oeste 38 Oeste 0 -- -- 38
2019-08-19 17:00:00 35.3 21 Noroeste 40 Oeste 0 -- -- 40
2019-08-19 16:00:00 36 25 Oeste 47 Oeste 0 -- -- 37
2019-08-19 15:00:00 36.5 17 Oeste 30 Oeste 0 -- -- 35
2019-08-19 14:00:00 35.8 18 Oeste 35 Oeste 0 -- -- 34
2019-08-19 13:00:00 33.3 21 Oeste 36 Oeste 0 -- -- 42
2019-08-19 12:00:00 30.7 21 Oeste 41 Oeste 0 -- -- 54
2019-08-19 11:00:00 28.2 22 Oeste 35 Oeste -- -- -- 62
2019-08-19 10:00:00 25.7 23 Oeste 35 Oeste 0 -- -- 71
2019-08-19 09:00:00 23.4 19 Oeste 37 Oeste 0 -- -- 78
2019-08-19 08:00:00 22.1 20 Noroeste 36 Oeste 0 -- -- 81
2019-08-19 07:00:00 22.1 19 Oeste 31 Oeste 0 -- -- 80
2019-08-19 06:00:00 22.7 21 Oeste 35 Oeste 0 -- -- 73
2019-08-19 05:00:00 23.6 23 Oeste 35 Oeste 0 -- -- 67
2019-08-19 04:00:00 24.6 21 Oeste 32 Oeste 0 -- -- 55
2019-08-19 03:00:00 24.7 21 Oeste 42 Oeste 0 -- -- 49
2019-08-19 02:00:00 24.8 26 Oeste 40 Oeste 0 -- -- 49
2019-08-19 01:00:00 25.7 23 Oeste 42 Oeste 0 -- -- 49
2019-08-19 00:00:00 26.5 28 Oeste 41 Oeste 0 -- -- 50
2019-08-18 23:00:00 27.5 22 Oeste 35 Oeste 0 -- -- 46
2019-08-18 22:00:00 28.4 22 Oeste 33 Oeste 0 -- -- 45
2019-08-18 21:00:00 30 21 Oeste 40 Oeste 0 -- -- 43
2019-08-18 20:00:00 32.7 24 Oeste 36 Oeste 0 -- -- 39
2019-08-18 19:00:00 34.3 22 Oeste 39 Oeste 0 -- -- 40
2019-08-18 18:00:00 34.9 24 Oeste 40 Oeste 0 -- -- 34
2019-08-18 17:00:00 35.5 22 Oeste 38 Oeste 0 -- -- 34
2019-08-18 16:00:00 35.4 22 Oeste 37 Oeste 0 -- -- 34
2019-08-18 15:00:00 34.4 25 Oeste 37 Oeste 0 -- -- 35
2019-08-18 14:00:00 33.5 21 Oeste 32 Oeste 0 -- -- 39
2019-08-18 13:00:00 32.3 19 Oeste 32 Oeste 0 -- -- 43
2019-08-18 12:00:00 30.9 15 Oeste 25 Noroeste 0 -- -- 48
2019-08-18 11:00:00 27.4 13 Oeste 19 Oeste 0 -- -- 56
2019-08-18 10:00:00 22.9 0 Calma 10 Noroeste 0 -- -- 74
2019-08-18 09:00:00 19.4 5 Noroeste 13 Noroeste 0 -- -- 89
2019-08-18 08:00:00 18 8 Noroeste 15 Noroeste 0 -- -- 93
2019-08-18 07:00:00 18.3 10 Noroeste 15 Noroeste 0 -- -- 95
2019-08-18 06:00:00 18.3 9 Noroeste 13 Norte 0 -- -- 94
2019-08-18 05:00:00 18.6 3 Noroeste 10 Noroeste 0 -- -- 94
2019-08-18 04:00:00 18.2 3 Noroeste 5 Noroeste 0 -- -- 94
2019-08-18 03:00:00 18.8 3 Noroeste 8 Noroeste 0 -- -- 93
2019-08-18 02:00:00 18.1 3 Noroeste 6 Noroeste 0 -- -- 92
2019-08-18 01:00:00 18.4 2 Oeste 9 Noroeste 0 -- -- 91
2019-08-18 00:00:00 20.3 3 Noroeste 5 Noroeste 0 -- -- 91
2019-08-17 23:00:00 20.7 0 Calma 3 Sudoeste 0 -- -- 91
2019-08-17 22:00:00 22 0 Calma 4 Sudeste 0 -- -- 91
2019-08-17 21:00:00 22.7 0 Calma 5 Nordeste 0 -- -- 90
2019-08-17 20:00:00 23.5 4 Este 8 Sudeste 0 -- -- 88
2019-08-17 19:00:00 23.8 4 Sudeste 10 Este 0 -- -- 86
2019-08-17 18:00:00 24.4 8 Este 12 Este 0 -- -- 85
2019-08-17 17:00:00 24.6 8 Este 11 Este 0 -- -- 84
2019-08-17 16:00:00 24.9 7 Este 10 Este 0 -- -- 83
2019-08-17 15:00:00 25.1 6 Este 10 Este 0 -- -- 82
2019-08-17 14:00:00 24.3 7 Este 10 Este 0 -- -- 84
2019-08-17 13:00:00 23.9 6 Nordeste 12 Nordeste 0 -- -- 85
2019-08-17 12:00:00 23.7 6 Nordeste 11 Nordeste 0 -- -- 88
2019-08-17 11:00:00 22.7 5 Este 7 Nordeste 0 -- -- 93
2019-08-17 10:00:00 21.3 4 Noroeste 9 Norte 0 -- -- 99
2019-08-17 09:00:00 20.4 7 Norte 10 Noroeste 0 -- -- 99
2019-08-17 08:00:00 20.1 7 Noroeste 10 Noroeste 0 -- -- 99
2019-08-17 07:00:00 20.6 2 Noroeste 6 Norte 0 -- -- 98
2019-08-17 06:00:00 20.3 3 Noroeste 5 Noroeste 0 -- -- 97
2019-08-17 05:00:00 19.2 0 Calma 5 Norte 0 -- -- 95
2019-08-17 04:00:00 19.2 4 Noroeste 6 Noroeste 0 -- -- 92
2019-08-17 03:00:00 19.1 3 Noroeste 9 Noroeste 0 -- -- 93
2019-08-17 02:00:00 20.3 5 Noroeste 7 Noroeste 0 -- -- 94
2019-08-17 01:00:00 20.9 4 Noroeste 5 Noroeste 0 -- -- 92
2019-08-17 00:00:00 20.4 0 Calma 3 Oeste 0 -- -- 88
2019-08-16 23:00:00 20.8 2 Sudoeste 3 Oeste 0 -- -- 86
2019-08-16 22:00:00 22.4 0 Calma 4 Nordeste 0 -- -- 85
2019-08-16 21:00:00 23.6 3 Nordeste 4 Nordeste 0 -- -- 86
2019-08-16 20:00:00 24.9 2 Este 6 Este 0 -- -- 83
2019-08-16 19:00:00 25.1 4 Este 8 Nordeste 0 -- -- 82
2019-08-16 18:00:00 24.6 4 Este 9 Nordeste 0 -- -- 85
2019-08-16 17:00:00 24.3 5 Nordeste 9 Nordeste 0 -- -- 85
2019-08-16 16:00:00 24.8 5 Este 10 Nordeste 0 -- -- 81
2019-08-16 15:00:00 24.4 8 Este 9 Este 0 -- -- 80
2019-08-16 14:00:00 24.2 6 Este 10 Este 0 -- -- 82
2019-08-16 13:00:00 23.5 5 Este 9 Este 0 -- -- 83
2019-08-16 12:00:00 23.5 5 Este 8 Este 0 -- -- 81
2019-08-16 11:00:00 23.2 4 Nordeste 9 Este 0 -- -- 78
2019-08-16 10:00:00 22.4 7 Norte 13 Noroeste 0 -- -- 77
2019-08-16 09:00:00 19 6 Norte 12 Noroeste 0 -- -- 93
2019-08-16 08:00:00 18.2 8 Noroeste 10 Noroeste 0 -- -- 97
2019-08-16 07:00:00 17.5 4 Oeste 8 Noroeste 0 -- -- 93
2019-08-16 06:00:00 19.1 6 Noroeste 10 Noroeste 0 -- -- 94
2019-08-16 05:00:00 18.5 2 Oeste 9 Noroeste 0 -- -- 92
2019-08-16 04:00:00 19.7 8 Noroeste 12 Noroeste 0 -- -- 93
2019-08-16 03:00:00 18.8 4 Noroeste 9 Noroeste 0 -- -- 91
2019-08-16 02:00:00 20.9 5 Noroeste 8 Noroeste 0 -- -- 94
2019-08-16 01:00:00 20.1 2 Noroeste 4 Noroeste 0 -- -- 91
2019-08-16 00:00:00 20.3 0 Calma 3 Oeste 0 -- -- 89
2019-08-15 23:00:00 21.3 0 Calma 3 Noroeste 0 -- -- 87
2019-08-15 22:00:00 22.2 0 Calma 4 Nordeste 0 -- -- 88
2019-08-15 21:00:00 23.3 2 Nordeste 5 Este 0 -- -- 89
2019-08-15 20:00:00 24 3 Este 8 Este 0 -- -- 86
2019-08-15 19:00:00 24.4 5 Este 10 Este 0 -- -- 85
2019-08-15 18:00:00 24.8 5 Este 9 Nordeste 0 -- -- 83
2019-08-15 17:00:00 24.5 5 Nordeste 10 Nordeste 0 -- -- 85
2019-08-15 16:00:00 24.9 5 Este 11 Este 0 -- -- 82
2019-08-15 15:00:00 25.1 8 Este 12 Este 0 -- -- 82
2019-08-15 14:00:00 25 7 Nordeste 11 Nordeste 0 -- -- 83
2019-08-15 13:00:00 25 5 Nordeste 10 Nordeste 0 -- -- 84
2019-08-15 12:00:00 24.1 5 Nordeste 7 Nordeste 0 -- -- 87
2019-08-15 11:00:00 23.5 3 Este 6 Noroeste 0 -- -- 95
2019-08-15 10:00:00 21.6 0 Calma 4 Norte 0 -- -- 99
2019-08-15 09:00:00 20.6 3 Norte 6 Norte 0 -- -- 98
2019-08-15 08:00:00 21 3 Noroeste 8 Noroeste 0 -- -- 97
2019-08-15 07:00:00 21.1 3 Norte 6 Norte 0 -- -- 96
2019-08-15 06:00:00 21 0 Calma 5 Norte 0 -- -- 95
2019-08-15 05:00:00 21.1 3 Noroeste 5 Noroeste 0 -- -- 96
2019-08-15 04:00:00 21 0 Calma 3 Nordeste 0 -- -- 96
2019-08-15 03:00:00 21.1 0 Calma 3 Norte 0 -- -- 96
2019-08-15 02:00:00 19.8 0 Calma -- -- 0 -- -- 93
2019-08-15 01:00:00 20.6 0 Calma -- -- 0 -- -- 92
2019-08-15 00:00:00 21.1 0 Calma 2 Sudeste 0 -- -- 90
2019-08-14 23:00:00 21.9 0 Calma 4 Norte 0 -- -- 89
2019-08-14 22:00:00 23.1 3 Nordeste 5 Nordeste 0 -- -- 93
2019-08-14 21:00:00 23.4 2 Nordeste 6 Nordeste 0 -- -- 91
2019-08-14 20:00:00 23.9 5 Nordeste 10 Nordeste 0 -- -- 90
2019-08-14 19:00:00 24.3 8 Nordeste 12 Nordeste 0 -- -- 88
2019-08-14 18:00:00 24.2 5 Nordeste 12 Nordeste 0 -- -- 87
2019-08-14 17:00:00 24.2 8 Nordeste 14 Nordeste 0 -- -- 87
2019-08-14 16:00:00 24.4 10 Nordeste 17 Nordeste 0 -- -- 86
2019-08-14 15:00:00 24.7 10 Nordeste 24 Este 0 -- -- 85
2019-08-14 14:00:00 25.1 13 Este 28 Este 0 -- -- 87
2019-08-14 13:00:00 24 10 Este 21 Este 0 -- -- 86
2019-08-14 12:00:00 23.4 8 Este 14 Este 0 -- -- 96
2019-08-14 11:00:00 21.1 4 Nordeste 10 Nordeste 0 -- -- 100
2019-08-14 10:00:00 20.5 4 Nordeste 12 Nordeste 0 -- -- 100
2019-08-14 09:00:00 20.4 8 Nordeste 12 Nordeste 0 -- -- 99
2019-08-14 08:00:00 20.4 10 Nordeste 15 Nordeste 0 -- -- 99
2019-08-14 07:00:00 20.5 10 Nordeste 17 Nordeste 0 -- -- 98
2019-08-14 06:00:00 20.2 3 Nordeste 12 Nordeste 0 -- -- 97
2019-08-14 05:00:00 20.7 9 Nordeste 19 Este 0 -- -- 95
2019-08-14 04:00:00 21.9 8 Este 18 Este 0 -- -- 93
2019-08-14 03:00:00 21.8 6 Nordeste 20 Este 0 -- -- 92
2019-08-14 02:00:00 21.5 8 Nordeste 18 Nordeste 0 -- -- 92
2019-08-14 01:00:00 21.9 14 Nordeste 19 Nordeste 0 -- -- 92
2019-08-14 00:00:00 22.3 13 Nordeste 18 Nordeste 0 -- -- 91
2019-08-13 23:00:00 23.4 8 Nordeste 12 Norte 0 -- -- 88
2019-08-13 22:00:00 23.8 7 Nordeste 11 Nordeste 0 -- -- 89
2019-08-13 21:00:00 24.1 8 Nordeste 17 Nordeste 0 -- -- 88
2019-08-13 20:00:00 24.6 11 Nordeste 17 Nordeste 0 -- -- 85
2019-08-13 19:00:00 25.1 9 Nordeste 13 Nordeste 0 -- -- 83
2019-08-13 18:00:00 25.8 6 Nordeste 10 Este 0 -- -- 82
2019-08-13 17:00:00 25.7 5 Este 8 Sudeste 0 -- -- 78
2019-08-13 16:00:00 26 4 Sudeste 7 Sudeste 0 -- -- 76
2019-08-13 15:00:00 25.5 5 Sudeste 8 Este 0 -- -- 75
2019-08-13 14:00:00 25.2 5 Este 7 Este 0 -- -- 75
2019-08-13 13:00:00 24.3 5 Sur 8 Sur 0 -- -- 75
2019-08-13 12:00:00 24.1 4 Sudeste 10 Sudeste 0 -- -- 74
2019-08-13 11:00:00 23.3 8 Este 20 Nordeste 0 -- -- 80
2019-08-13 10:00:00 22.6 15 Nordeste 24 Nordeste 0 -- -- 81
2019-08-13 09:00:00 22.1 18 Nordeste 27 Nordeste 0 -- -- 85
2019-08-13 08:00:00 21.9 18 Nordeste 28 Nordeste 0 -- -- 86
2019-08-13 07:00:00 19.8 11 Noroeste 18 Noroeste 0 -- -- 69
2019-08-13 06:00:00 19.7 9 Noroeste 16 Norte 0 -- -- 57
2019-08-13 05:00:00 19.7 9 Noroeste 15 Noroeste 0 -- -- 62
2019-08-13 04:00:00 20 4 Noroeste 8 Noroeste 0 -- -- 72
2019-08-13 03:00:00 21.3 4 Norte 12 Nordeste 0 -- -- 71
2019-08-13 02:00:00 22 6 Norte 15 Norte 0 -- -- 63
2019-08-13 01:00:00 22.9 5 Norte 13 Nordeste 0 -- -- 56
2019-08-13 00:00:00 22.8 10 Norte 22 Oeste 0 -- -- 55
2019-08-12 23:00:00 26.4 13 Oeste 30 Oeste 0 -- -- 34
2019-08-12 22:00:00 27.5 17 Oeste 28 Oeste 0 -- -- 31
2019-08-12 21:00:00 30 18 Oeste 32 Oeste 0 -- -- 28
2019-08-12 20:00:00 33 23 Oeste 38 Sudoeste 0 -- -- 25
2019-08-12 19:00:00 33.4 24 Sudoeste 40 Sudoeste 0 -- -- 25
2019-08-12 18:00:00 24.2 25 Sur 36 Sur 0 -- -- 57
2019-08-12 17:00:00 25.5 26 Sur 38 Sur 0 -- -- 53
2019-08-12 16:00:00 34.9 17 Sudoeste 32 Sudoeste 0 -- -- 22
2019-08-12 15:00:00 32.1 18 Oeste 28 Oeste 0 -- -- 26
2019-08-12 14:00:00 32.2 14 Oeste 30 Oeste 0 -- -- 26
2019-08-12 13:00:00 28.8 18 Oeste 27 Oeste 0 -- -- 33
2019-08-12 12:00:00 28.1 12 Oeste 17 Oeste 0 -- -- 34
2019-08-12 11:00:00 24.7 10 Sudeste 18 Sudoeste 0 -- -- 53
2019-08-12 10:00:00 23.8 8 Sudeste 23 Oeste 0 -- -- 48
2019-08-12 09:00:00 23.1 8 Noroeste 28 Oeste 0 -- -- 43
2019-08-12 08:00:00 21.8 19 Oeste 28 Oeste 0 -- -- 43
2019-08-12 07:00:00 22.2 15 Noroeste 33 Oeste 0 -- -- 42
2019-08-12 06:00:00 22.6 22 Oeste 35 Oeste 0 -- -- 42
2019-08-12 05:00:00 23.7 17 Oeste 35 Noroeste 0 -- -- 40
2019-08-12 04:00:00 24.3 22 Oeste 36 Oeste 0 -- -- 41
2019-08-12 03:00:00 24.2 22 Oeste 36 Oeste 0 -- -- 43
2019-08-12 02:00:00 24.1 19 Oeste 32 Oeste 0 -- -- 45
2019-08-12 01:00:00 24 20 Oeste 30 Oeste 0 -- -- 46
2019-08-12 00:00:00 24.4 18 Oeste 31 Oeste 0 -- -- 47
2019-08-11 23:00:00 25.7 10 Oeste 30 Oeste 0 -- -- 41
2019-08-11 22:00:00 26.5 18 Oeste 35 Oeste 0 -- -- 37
2019-08-11 21:00:00 28.8 21 Oeste 35 Oeste 0 -- -- 35
2019-08-11 20:00:00 32.6 18 Oeste 38 Oeste 0 -- -- 30
2019-08-11 19:00:00 33.7 20 Noroeste 41 Noroeste 0 -- -- 24
2019-08-11 18:00:00 34.7 23 Noroeste 42 Noroeste 0 -- -- 22
2019-08-11 17:00:00 35 23 Noroeste 44 Oeste 0 -- -- 22
2019-08-11 16:00:00 35 23 Noroeste 42 Noroeste 0 -- -- 22
2019-08-11 15:00:00 34.3 25 Noroeste 46 Oeste 0 -- -- 25
2019-08-11 14:00:00 33.4 31 Oeste 45 Oeste 0 -- -- 29
2019-08-11 13:00:00 31.9 28 Oeste 43 Oeste 0 -- -- 30
2019-08-11 12:00:00 30.9 20 Oeste 32 Oeste 0 -- -- 37
2019-08-11 11:00:00 29.2 19 Oeste 32 Oeste 0 -- -- 39
2019-08-11 10:00:00 26.5 22 Oeste 33 Oeste 0 -- -- 47
2019-08-11 09:00:00 24 24 Oeste 35 Oeste 0 -- -- 53
2019-08-11 08:00:00 22.8 22 Oeste 32 Oeste 0 -- -- 55
2019-08-11 07:00:00 22.8 5 Noroeste 32 Oeste 0 -- -- 59
2019-08-11 06:00:00 22.9 22 Oeste 30 Oeste 0 -- -- 58
2019-08-11 05:00:00 22.8 16 Sudoeste 32 Oeste 0 -- -- 62
2019-08-11 04:00:00 23.3 24 Oeste 34 Oeste 0 -- -- 58
2019-08-11 03:00:00 24.6 23 Oeste 39 Oeste 0 -- -- 51
2019-08-11 02:00:00 25.4 24 Oeste 55 Oeste 0 -- -- 43
2019-08-11 01:00:00 24.5 24 Oeste 41 Oeste 0 -- -- 51
2019-08-11 00:00:00 25.3 7 Noroeste 31 Oeste 0 -- -- 57
2019-08-10 23:00:00 26.5 20 Oeste 31 Oeste 0 -- -- 54
2019-08-10 22:00:00 28.4 16 Oeste 37 Oeste 0 -- -- 51
2019-08-10 21:00:00 30.8 24 Oeste 39 Oeste 0 -- -- 48
2019-08-10 20:00:00 34.2 25 Oeste 36 Oeste 0 -- -- 42
2019-08-10 19:00:00 35.9 24 Oeste 39 Oeste 0 -- -- 41
2019-08-10 18:00:00 37.1 23 Oeste 37 Oeste 0 -- -- 39
2019-08-10 17:00:00 38 20 Oeste 33 Oeste 0 -- -- 36
2019-08-10 16:00:00 37.5 23 Oeste 36 Oeste 0 -- -- 36
2019-08-10 15:00:00 37.3 19 Oeste 34 Oeste 0 -- -- 39
2019-08-10 14:00:00 36.2 20 Oeste 35 Oeste 0 -- -- 41
2019-08-10 13:00:00 34.9 16 Oeste 32 Oeste 0 -- -- 44
2019-08-10 12:00:00 33.3 14 Oeste 33 Oeste 0 -- -- 50
2019-08-10 11:00:00 31.1 20 Oeste 32 Oeste 0 -- -- 54
2019-08-10 10:00:00 28 21 Oeste 35 Oeste 0 -- -- 67
2019-08-10 09:00:00 24.9 27 Oeste 40 Oeste 0 -- -- 78
2019-08-10 08:00:00 23.3 30 Oeste 40 Oeste 0 -- -- 83
2019-08-10 07:00:00 23.4 23 Oeste 41 Oeste 0 -- -- 83
2019-08-10 06:00:00 23 28 Oeste 42 Oeste 0 -- -- 86
2019-08-10 05:00:00 23.2 30 Oeste 42 Oeste 0 -- -- 86
2019-08-10 04:00:00 23.6 28 Oeste 49 Oeste 0 -- -- 84
2019-08-10 03:00:00 23.9 32 Oeste 49 Oeste 0 -- -- 83
2019-08-10 02:00:00 24.3 36 Oeste 59 Oeste 0 -- -- 81
2019-08-10 01:00:00 24.7 32 Oeste 52 Oeste 0 -- -- 78
2019-08-10 00:00:00 25.3 31 Oeste 46 Oeste 0 -- -- 76
2019-08-09 23:00:00 25.8 32 Oeste 50 Oeste 0 -- -- 72
2019-08-09 22:00:00 27.1 29 Oeste 44 Oeste 0 -- -- 65
2019-08-09 21:00:00 29.7 22 Oeste 37 Oeste 0 -- -- 55
2019-08-09 20:00:00 32.2 23 Oeste 41 Oeste 0 -- -- 45
2019-08-09 19:00:00 34 25 Oeste 41 Oeste 0 -- -- 40
2019-08-09 18:00:00 35.2 27 Oeste 41 Oeste 0 -- -- 38
2019-08-09 17:00:00 35.9 24 Oeste 44 Oeste 0 -- -- 38
2019-08-09 16:00:00 35.9 23 Oeste 45 Oeste 0 -- -- 37
2019-08-09 15:00:00 36.2 31 Oeste 44 Sudoeste 0 -- -- 36
2019-08-09 14:00:00 34.9 22 Oeste 40 Oeste 0 -- -- 42
2019-08-09 13:00:00 33.5 19 Oeste 36 Oeste 0 -- -- 45
2019-08-09 12:00:00 32 20 Oeste 35 Oeste 0 -- -- 50
2019-08-09 11:00:00 29.3 22 Oeste 36 Oeste 0 -- -- 59
2019-08-09 10:00:00 26.8 23 Oeste 33 Oeste 0 -- -- 67
2019-08-09 09:00:00 23.8 23 Oeste 37 Oeste 0 -- -- 79
2019-08-09 08:00:00 22.1 24 Oeste 39 Oeste 0 -- -- 85
2019-08-09 07:00:00 22 24 Oeste 39 Oeste 0 -- -- 85
2019-08-09 06:00:00 22.2 28 Oeste 40 Oeste 0 -- -- 83
2019-08-09 05:00:00 22.4 24 Oeste 38 Oeste 0 -- -- 78
2019-08-09 04:00:00 23 24 Oeste 34 Oeste 0 -- -- 70
2019-08-09 03:00:00 23.9 26 Oeste 39 Oeste 0 -- -- 60
2019-08-09 02:00:00 24.5 26 Oeste 37 Oeste 0 -- -- 55
2019-08-09 01:00:00 25.7 19 Oeste 34 Oeste 0 -- -- 50
2019-08-09 00:00:00 26.3 23 Oeste 33 Oeste 0 -- -- 52
2019-08-08 23:00:00 27.7 23 Oeste 33 Oeste 0 -- -- 49
2019-08-08 22:00:00 29.5 24 Oeste 36 Oeste 0 -- -- 46
2019-08-08 21:00:00 28.8 12 Oeste 22 Oeste 0 -- -- 49
2019-08-08 20:00:00 24.5 9 Nordeste 18 Nordeste 0 -- -- 77
2019-08-08 19:00:00 25.8 10 Nordeste 16 Nordeste 0 -- -- 70
2019-08-08 18:00:00 26.1 10 Nordeste 16 Nordeste 0 -- -- 68
2019-08-08 17:00:00 27 10 Nordeste 18 Nordeste 0 -- -- 62
2019-08-08 16:00:00 26.5 9 Nordeste 15 Nordeste 0 -- -- 65
2019-08-08 15:00:00 26 6 Este 20 Sudeste 0 -- -- 65
2019-08-08 14:00:00 26.8 18 Sur 23 Sudeste 0 -- -- 63
2019-08-08 13:00:00 29.6 13 Sudeste 21 Sur 0 -- -- 54
2019-08-08 12:00:00 31 9 Sudeste 24 Oeste 0 -- -- 49
2019-08-08 11:00:00 31 14 Oeste 24 Oeste 0 -- -- 44
2019-08-08 10:00:00 27.6 9 Oeste 18 Sudoeste 0 -- -- 53
2019-08-08 09:00:00 23.2 9 Sur 24 Sudoeste 0 -- -- 68
2019-08-08 08:00:00 24.3 11 Sur 21 Noroeste 0 -- -- 60
2019-08-08 07:00:00 25.7 13 Oeste 30 Oeste 0 -- -- 54
2019-08-08 06:00:00 25.7 21 Oeste 36 Noroeste 0 -- -- 54
2019-08-08 05:00:00 25.6 23 Oeste 37 Oeste 0 -- -- 57
2019-08-08 04:00:00 25.4 21 Oeste 40 Oeste 0 -- -- 58
2019-08-08 03:00:00 24.8 29 Oeste 42 Oeste 0 -- -- 62
2019-08-08 02:00:00 24.8 26 Oeste 40 Oeste 0 -- -- 63
2019-08-08 01:00:00 25.8 25 Oeste 38 Oeste 0 -- -- 57
2019-08-08 00:00:00 26.7 28 Oeste 41 Oeste 0 -- -- 54
2019-08-07 23:00:00 27.4 29 Oeste 41 Oeste 0 -- -- 52
2019-08-07 22:00:00 28.8 25 Oeste 35 Oeste 0 -- -- 45
2019-08-07 21:00:00 30.9 21 Oeste 35 Oeste 0 -- -- 42
2019-08-07 20:00:00 33.6 21 Oeste 34 Oeste 0 -- -- 39
2019-08-07 19:00:00 35.8 19 Oeste 39 Oeste 0 -- -- 37
2019-08-07 18:00:00 37.6 25 Oeste 38 Oeste 0 -- -- 31
2019-08-07 17:00:00 37.7 23 Oeste 39 Oeste 0 -- -- 32
2019-08-07 16:00:00 37.2 23 Oeste 39 Oeste 0 -- -- 35
2019-08-07 15:00:00 36.2 23 Oeste 42 Oeste 0 -- -- 37
2019-08-07 14:00:00 35.8 18 Oeste 37 Oeste 0 -- -- 33
2019-08-07 13:00:00 33.4 24 Oeste 38 Oeste 0 -- -- 42
2019-08-07 12:00:00 31.2 23 Oeste 38 Oeste 0 -- -- 49
2019-08-07 11:00:00 28.2 26 Oeste 43 Oeste 0 -- -- 58
2019-08-07 10:00:00 26 24 Oeste 40 Oeste 0 -- -- 65
2019-08-07 09:00:00 23.3 23 Oeste 34 Oeste 0 -- -- 72
2019-08-07 08:00:00 21.7 21 Oeste 33 Oeste 0 -- -- 73
2019-08-07 07:00:00 22 19 Sudoeste 33 Oeste 0 -- -- 66
2019-08-07 06:00:00 23.1 21 Oeste 32 Oeste 0 -- -- 59
2019-08-07 05:00:00 25.1 24 Oeste 37 Oeste 0 -- -- 45
2019-08-07 04:00:00 24.9 26 Oeste 38 Oeste 0 -- -- 46
2019-08-07 03:00:00 25.3 24 Oeste 42 Oeste 0 -- -- 47
2019-08-07 02:00:00 25.7 25 Oeste 38 Oeste 0 -- -- 46
2019-08-07 01:00:00 26.6 20 Oeste 32 Oeste 0 -- -- 44
2019-08-07 00:00:00 26.9 15 Oeste 30 Oeste 0 -- -- 45
2019-08-06 23:00:00 27.4 23 Oeste 32 Oeste 0 -- -- 50
2019-08-06 22:00:00 28.2 5 Noroeste 19 Oeste 0 -- -- 45
2019-08-06 21:00:00 29.3 8 Sudoeste 22 Oeste 0 -- -- 50
2019-08-06 20:00:00 26.8 4 Nordeste 17 Nordeste 0 -- -- 62
2019-08-06 19:00:00 30.3 4 Nordeste 32 Sur 0 -- -- 49
2019-08-06 18:00:00 28.5 19 Sur 29 Sur 0 -- -- 52
2019-08-06 17:00:00 26 6 Este 14 Nordeste 0 -- -- 59
2019-08-06 16:00:00 25.5 8 Nordeste 19 Nordeste 0 -- -- 70
2019-08-06 15:00:00 25.2 9 Este 22 Sur 0 -- -- 67
2019-08-06 14:00:00 25.4 4 Este 9 Sudeste 0 -- -- 68
2019-08-06 13:00:00 24.8 6 Sudeste 12 Sur 0 -- -- 66
2019-08-06 12:00:00 24.7 6 Sudeste 14 Nordeste 0 -- -- 65
2019-08-06 11:00:00 24.4 7 Nordeste 13 Nordeste 0 -- -- 67
2019-08-06 10:00:00 23.8 3 Norte 15 Sudeste 0 -- -- 64
2019-08-06 09:00:00 21.7 4 Sudeste 14 Norte 0 -- -- 66
2019-08-06 08:00:00 18.8 8 Noroeste 11 Noroeste 0 -- -- 75
2019-08-06 07:00:00 19.2 4 Sur 10 Noroeste 0 -- -- 69
2019-08-06 06:00:00 20.2 4 Norte 7 Norte 0 -- -- 70
2019-08-06 05:00:00 21.3 3 Norte 12 Sudoeste 0 -- -- 66
2019-08-06 04:00:00 22.5 7 Oeste 13 Sudoeste 0 -- -- 55
2019-08-06 03:00:00 23.9 2 Oeste 12 Oeste 0 -- -- 52
2019-08-06 02:00:00 25 7 Oeste 18 Noroeste 0 -- -- 49
2019-08-06 01:00:00 26.3 14 Noroeste 32 Oeste 0 -- -- 46
2019-08-06 00:00:00 26.2 15 Oeste 24 Oeste 0 -- -- 49
2019-08-05 23:00:00 25.9 14 Oeste 24 Oeste 0 -- -- 53
2019-08-05 22:00:00 23.3 0 Calma 4 Sudeste 0 -- -- 77
2019-08-05 21:00:00 23.7 4 Sur 10 Sur 0 -- -- 79
2019-08-05 20:00:00 25.6 6 Nordeste 12 Nordeste 0 -- -- 68
2019-08-05 19:00:00 25.9 6 Nordeste 10 Nordeste 0 -- -- 66
2019-08-05 18:00:00 24.9 5 Nordeste 15 Nordeste 0 -- -- 74
2019-08-05 17:00:00 25 10 Nordeste 27 Nordeste 0 -- -- 72
2019-08-05 16:00:00 23.9 15 Nordeste 27 Nordeste 0 -- -- 81
2019-08-05 15:00:00 23.4 17 Nordeste 29 Nordeste 0 -- -- 84
2019-08-05 14:00:00 23.9 17 Nordeste 25 Nordeste 0 -- -- 81
2019-08-05 13:00:00 24.6 5 Este 10 Nordeste 0 -- -- 77
2019-08-05 12:00:00 24.5 6 Este 13 Sur 0 -- -- 76
2019-08-05 11:00:00 24.2 10 Sur 14 Sur 0 -- -- 77
2019-08-05 10:00:00 23.6 5 Sur 10 Sur 0 -- -- 77
2019-08-05 09:00:00 21.6 5 Norte 9 Noroeste 0 -- -- 85
2019-08-05 08:00:00 19.3 3 Noroeste 5 Noroeste 0 -- -- 92
2019-08-05 07:00:00 18.5 3 Noroeste 4 Sudoeste 0 -- -- 90
2019-08-05 06:00:00 19.2 0 Calma 4 Sudoeste 0 -- -- 90
2019-08-05 05:00:00 19.4 3 Oeste 7 Sudoeste 0 -- -- 89
2019-08-05 04:00:00 21.1 4 Nordeste 10 Norte 0 -- -- 88
2019-08-05 03:00:00 21 0 Calma 13 Nordeste 0 -- -- 85
2019-08-05 02:00:00 21.3 3 Oeste 20 Sur 0 -- -- 86
2019-08-05 01:00:00 21.7 12 Sudoeste 19 Sur 0 -- -- 84
2019-08-05 00:00:00 21.7 3 Sudoeste 11 Norte 0 -- -- 82
2019-08-04 23:00:00 22.6 9 Nordeste 13 Nordeste 0 -- -- 83
2019-08-04 22:00:00 23.3 4 Nordeste 8 Nordeste 0 -- -- 79
2019-08-04 21:00:00 24.9 2 Norte 12 Este 0 -- -- 74
2019-08-04 20:00:00 25.5 6 Nordeste 18 Sur 0 -- -- 71
2019-08-04 19:00:00 26.2 18 Sur 34 Sur 0 -- -- 69
2019-08-04 18:00:00 25.8 24 Sur 30 Sur 0 -- -- 70
2019-08-04 17:00:00 26.3 24 Sur 34 Sur 0 -- -- 66
2019-08-04 16:00:00 26.4 23 Sur 35 Sur 0 -- -- 68
2019-08-04 15:00:00 26.6 27 Sur 35 Sur 0 -- -- 66
2019-08-04 14:00:00 26.1 23 Sur 32 Sur 0 -- -- 69
2019-08-04 13:00:00 26.3 15 Sudeste 23 Sur 0 -- -- 69
2019-08-04 12:00:00 31.2 9 Sudoeste 22 Oeste 0 -- -- 51
2019-08-04 11:00:00 28.8 11 Oeste 21 Oeste 0 -- -- 49
2019-08-04 10:00:00 25.7 12 Oeste 21 Oeste 0 -- -- 58
2019-08-04 09:00:00 22.4 7 Oeste 18 Oeste 0 -- -- 72
2019-08-04 08:00:00 20.1 3 Noroeste 10 Noroeste 0 -- -- 86
2019-08-04 07:00:00 20.1 4 Oeste 12 Oeste 0 -- -- 86
2019-08-04 06:00:00 19.3 3 Noroeste 8 Noroeste 0 -- -- 89
2019-08-04 05:00:00 19.5 4 Oeste 8 Noroeste 0 -- -- 92
2019-08-04 04:00:00 19.8 3 Sur 5 Sudeste 0 -- -- 92
2019-08-04 03:00:00 19.7 3 Sudoeste 9 Nordeste 0 -- -- 91
2019-08-04 02:00:00 21.3 5 Nordeste 9 Nordeste 0 -- -- 94
2019-08-04 01:00:00 21.4 5 Nordeste 14 Este 0 -- -- 92
2019-08-04 00:00:00 20.9 3 Sur 5 Sudoeste 0 -- -- 84
2019-08-03 23:00:00 21.3 0 Calma 2 Sudeste 0 -- -- 85
2019-08-03 22:00:00 22 0 Calma 5 Sudeste 0 -- -- 88
2019-08-03 21:00:00 23 2 Sudeste 9 Sur 0 -- -- 85
2019-08-03 20:00:00 23.8 7 Sur 12 Sur 0 -- -- 83
2019-08-03 19:00:00 24.3 6 Sudeste 8 Sur 0 -- -- 83
2019-08-03 18:00:00 24.8 5 Sudeste 8 Sudeste 0 -- -- 81
2019-08-03 17:00:00 25.2 5 Sudeste 12 Este 0 -- -- 79
2019-08-03 16:00:00 25.3 8 Sudeste 14 Sudeste 0 -- -- 78
2019-08-03 15:00:00 24.7 11 Sudeste 13 Sudeste 0 -- -- 79
2019-08-03 14:00:00 24.6 5 Sudeste 8 Sudeste 0 -- -- 78
2019-08-03 13:00:00 23.8 4 Este 8 Este 0 -- -- 82
2019-08-03 12:00:00 23.7 5 Este 10 Este 0 -- -- 82
2019-08-03 11:00:00 23.8 6 Sudeste 10 Este 0 -- -- 81
2019-08-03 10:00:00 23.6 4 Este 10 Norte 0 -- -- 78
2019-08-03 09:00:00 21.1 6 Norte 12 Noroeste 0 -- -- 81
2019-08-03 08:00:00 19.8 8 Norte 12 Noroeste 0 -- -- 88
2019-08-03 07:00:00 20.2 5 Noroeste 12 Norte 0 -- -- 89
2019-08-03 06:00:00 20.3 6 Norte 11 Noroeste 0 -- -- 89
2019-08-03 05:00:00 20.6 5 Norte 9 Nordeste 0 -- -- 89
2019-08-03 04:00:00 20.8 5 Nordeste 11 Norte 0 -- -- 90
2019-08-03 03:00:00 21 7 Norte 18 Nordeste 0 -- -- 90
2019-08-03 02:00:00 21.3 10 Norte 18 Norte 0 -- -- 89
2019-08-03 01:00:00 21.3 6 Norte 10 Norte 0 -- -- 92
2019-08-03 00:00:00 21.6 3 Norte 5 Norte 0 -- -- 90
2019-08-02 23:00:00 21.6 4 Sudeste 7 Sudeste 0 -- -- 86
2019-08-02 22:00:00 22.6 0 Calma 4 Sur 0 -- -- 83
2019-08-02 21:00:00 23.2 4 Sur 6 Sudeste 0 -- -- 85
2019-08-02 20:00:00 23.8 4 Este 18 Nordeste 0 -- -- 85
2019-08-02 19:00:00 23.6 11 Nordeste 24 Nordeste 0 -- -- 84
2019-08-02 18:00:00 23.7 15 Nordeste 28 Nordeste 0 -- -- 82
2019-08-02 17:00:00 24.1 18 Nordeste 29 Nordeste 0 -- -- 80
2019-08-02 16:00:00 24.4 18 Nordeste 29 Nordeste 0 -- -- 81
2019-08-02 15:00:00 24.1 18 Nordeste 29 Nordeste 0 -- -- 81
2019-08-02 14:00:00 23.7 15 Nordeste 26 Nordeste 0 -- -- 81
2019-08-02 13:00:00 25.8 11 Sudeste 29 Sur 0 -- -- 68
2019-08-02 12:00:00 24.8 21 Sur 30 Sur 0 -- -- 71
2019-08-02 11:00:00 27.5 10 Sur 21 Oeste 0 -- -- 61
2019-08-02 10:00:00 25 11 Oeste 19 Oeste 0 -- -- 66
2019-08-02 09:00:00 21.8 2 Noroeste 8 Noroeste 0 -- -- 93
2019-08-02 08:00:00 20.1 8 Noroeste 11 Noroeste 0 -- -- 95
2019-08-02 07:00:00 20.3 4 Norte 6 Noroeste 0 -- -- 95
2019-08-02 06:00:00 19.5 0 Calma 4 Oeste 0 -- -- 93
2019-08-02 05:00:00 19.5 4 Oeste 6 Oeste 0 -- -- 93
2019-08-02 04:00:00 19.7 4 Oeste 5 Sudoeste 0 -- -- 92
2019-08-02 03:00:00 20.2 2 Oeste 5 Sudoeste 0 -- -- 91
2019-08-02 02:00:00 20.9 0 Calma 5 Nordeste 0 -- -- 90
2019-08-02 01:00:00 21.6 5 Norte 15 Nordeste 0 -- -- 93
2019-08-02 00:00:00 21.9 5 Nordeste 10 Nordeste 0 -- -- 86
2019-08-01 23:00:00 23.8 2 Noroeste 20 Sur 0 -- -- 82
2019-08-01 22:00:00 24 11 Sudoeste 17 Sudoeste 0 -- -- 81
2019-08-01 21:00:00 24.5 12 Sur 16 Sur 0 -- -- 77
2019-08-01 20:00:00 25.4 11 Sur 15 Sur 0 -- -- 73
2019-08-01 19:00:00 26.4 13 Sur 15 Sur 0 -- -- 71
2019-08-01 18:00:00 26.3 11 Sur 14 Sur 0 -- -- 74
2019-08-01 17:00:00 26.7 9 Sur 15 Sur 0 -- -- 71
2019-08-01 16:00:00 27 12 Sur 15 Sur 0 -- -- 71
2019-08-01 15:00:00 27.2 7 Sur 8 Sur 0 -- -- 71
2019-08-01 14:00:00 26.6 4 Sudeste 5 Sudeste 0 -- -- 73
2019-08-01 13:00:00 25.5 2 Sudeste 4 Este 0 -- -- 77
2019-08-01 12:00:00 24.5 2 Este 6 Nordeste 0 -- -- 83
2019-08-01 11:00:00 23 4 Nordeste 11 Nordeste 0 -- -- 86
2019-08-01 10:00:00 22.5 8 Nordeste 15 Nordeste 0 -- -- 88
2019-08-01 09:00:00 22.1 9 Nordeste 16 Nordeste 0 -- -- 89
2019-08-01 08:00:00 21.3 9 Nordeste 18 Nordeste 0 -- -- 92
2019-08-01 07:00:00 21 9 Nordeste 14 Nordeste 0 -- -- 93
2019-08-01 06:00:00 21.1 10 Nordeste 13 Nordeste 0 -- -- 93
2019-08-01 05:00:00 21.4 8 Nordeste 13 Norte 0 -- -- 93
2019-08-01 04:00:00 21.3 6 Nordeste 14 Nordeste 0 -- -- 93
2019-08-01 03:00:00 21.2 8 Nordeste 15 Nordeste 0 -- -- 92
2019-08-01 02:00:00 21 9 Nordeste 15 Nordeste 0 -- -- 92
2019-08-01 01:00:00 21.3 9 Nordeste 15 Nordeste 0 -- -- 91
2019-08-01 00:00:00 22 6 Este 18 Este 0 -- -- 88
2019-07-31 23:00:00 21.8 8 Nordeste 16 Nordeste 0 -- -- 89
2019-07-31 22:00:00 21.4 8 Nordeste 17 Nordeste 0 -- -- 90
2019-07-31 21:00:00 22.5 10 Nordeste 15 Nordeste 0 -- -- 84
2019-07-31 20:00:00 23.7 8 Nordeste 15 Nordeste 0 -- -- 82
2019-07-31 19:00:00 25.9 8 Nordeste 14 Este 0 -- -- 74
2019-07-31 18:00:00 24.7 7 Nordeste 16 Nordeste 0 -- -- 77
2019-07-31 17:00:00 24.7 11 Nordeste 17 Nordeste 0 -- -- 77
2019-07-31 16:00:00 24.5 9 Nordeste 15 Nordeste 0 -- -- 77
2019-07-31 15:00:00 23.5 9 Nordeste 15 Nordeste 0 -- -- 81
2019-07-31 14:00:00 23.8 8 Nordeste 16 Nordeste 0 -- -- 79
2019-07-31 13:00:00 24 11 Nordeste 18 Nordeste 0 -- -- 80
2019-07-31 12:00:00 22.8 13 Nordeste 22 Nordeste 0 -- -- 83
2019-07-31 11:00:00 22.6 6 Nordeste 18 Nordeste 0 -- -- 84
2019-07-31 10:00:00 21.1 14 Nordeste 22 Este 0 -- -- 88
2019-07-31 09:00:00 21.4 9 Nordeste 19 Nordeste 0 -- -- 84
2019-07-31 08:00:00 20.3 7 Nordeste 16 Nordeste 0 -- -- 89
2019-07-31 07:00:00 20.3 9 Nordeste 18 Nordeste 0 -- -- 91
2019-07-31 06:00:00 21.1 12 Nordeste 20 Nordeste 0 -- -- 92
2019-07-31 05:00:00 20.8 8 Nordeste 14 Nordeste 0 -- -- 90
2019-07-31 04:00:00 21.6 6 Nordeste 28 Este 0 -- -- 84
2019-07-31 03:00:00 21.4 2 Este 14 Nordeste 0 -- -- 90
2019-07-31 02:00:00 20.9 5 Nordeste 15 Norte 0 -- -- 81
2019-07-31 01:00:00 22 8 Norte 13 Norte 0 -- -- 69
2019-07-31 00:00:00 20.3 6 Nordeste 10 Norte 0 -- -- 83
2019-07-30 23:00:00 21.5 2 Norte 4 Noroeste 0 -- -- 76
2019-07-30 22:00:00 21.2 3 Oeste 11 Nordeste 0 -- -- 78
2019-07-30 21:00:00 21.5 5 Nordeste 20 Nordeste 0 -- -- 79
2019-07-30 20:00:00 23.4 11 Nordeste 20 Nordeste 0 -- -- 66
2019-07-30 19:00:00 23.7 12 Nordeste 21 Nordeste 0 -- -- 69
2019-07-30 18:00:00 23.5 11 Nordeste 25 Nordeste 0 -- -- 69
2019-07-30 17:00:00 23.3 14 Nordeste 22 Nordeste 0 -- -- 78
2019-07-30 16:00:00 23.3 15 Nordeste 22 Nordeste 0 -- -- 79
2019-07-30 15:00:00 22.6 11 Nordeste 17 Nordeste 0 -- -- 81
2019-07-30 14:00:00 23.2 9 Nordeste 15 Nordeste 0 -- -- 74
2019-07-30 13:00:00 22.4 10 Nordeste 17 Nordeste 0 -- -- 75
2019-07-30 12:00:00 23.7 6 Este 11 Sudeste 0 -- -- 67
2019-07-30 11:00:00 23.9 7 Sudeste 13 Sur 0 -- -- 63
2019-07-30 10:00:00 22.6 5 Este 12 Nordeste 0 -- -- 72
2019-07-30 09:00:00 23.2 4 Nordeste 12 Noroeste 0 -- -- 67
2019-07-30 08:00:00 22.2 6 Noroeste 16 Oeste 0 -- -- 65
2019-07-30 07:00:00 22.8 9 Oeste 23 Oeste 0 -- -- 62
2019-07-30 06:00:00 23.8 15 Oeste 27 Oeste 0 -- -- 58
2019-07-30 05:00:00 24.5 14 Oeste 27 Oeste 0 -- -- 52
2019-07-30 04:00:00 25.3 21 Oeste 29 Oeste 0 -- -- 51
2019-07-30 03:00:00 25.4 22 Oeste 31 Noroeste 0 -- -- 52
2019-07-30 02:00:00 24.9 19 Oeste 27 Oeste 0 -- -- 57
2019-07-30 01:00:00 26.3 15 Oeste 29 Oeste 0 -- -- 54
2019-07-30 00:00:00 26.8 18 Oeste 31 Oeste 0 -- -- 55
2019-07-29 23:00:00 27.6 17 Oeste 32 Oeste 0 -- -- 53
2019-07-29 22:00:00 28.8 21 Oeste 36 Oeste 0 -- -- 49
2019-07-29 21:00:00 31.1 22 Oeste 39 Oeste 0 -- -- 41
2019-07-29 20:00:00 33.3 25 Oeste 38 Oeste 0 -- -- 39
2019-07-29 19:00:00 34.3 23 Oeste 35 Oeste 0 -- -- 39
2019-07-29 18:00:00 35 18 Oeste 33 Sudoeste 0 -- -- 40
2019-07-29 17:00:00 30 24 Sudoeste 47 Sudoeste 0 -- -- 53
2019-07-29 16:00:00 30.1 19 Sur 32 Sur 0 -- -- 53
2019-07-29 15:00:00 30.4 11 Sudeste 28 Oeste 0 -- -- 51
2019-07-29 14:00:00 32.8 15 Oeste 30 Oeste 0 -- -- 45
2019-07-29 13:00:00 30.7 18 Oeste 30 Oeste 0 -- -- 52
2019-07-29 12:00:00 28.5 18 Oeste 30 Oeste 0 -- -- 58
2019-07-29 11:00:00 26.6 20 Oeste 29 Oeste 0 -- -- 63
2019-07-29 10:00:00 24.6 17 Oeste 31 Noroeste 0 -- -- 70
2019-07-29 09:00:00 22.5 16 Oeste 31 Noroeste 0 -- -- 78
2019-07-29 08:00:00 20.5 13 Noroeste 27 Oeste 0 -- -- 85
2019-07-29 07:00:00 20.1 19 Oeste 42 Oeste 0 -- -- 83
2019-07-29 06:00:00 20.5 24 Oeste 39 Oeste 0 -- -- 79
2019-07-29 05:00:00 20.9 17 Oeste 36 Oeste 0 -- -- 74
2019-07-29 04:00:00 20.8 24 Oeste 41 Oeste 0 -- -- 79
2019-07-29 03:00:00 21.1 21 Oeste 38 Oeste 0 -- -- 79
2019-07-29 02:00:00 21.6 22 Oeste 34 Oeste 0 -- -- 78
2019-07-29 01:00:00 22 19 Oeste 34 Oeste 0 -- -- 75
2019-07-29 00:00:00 22.4 23 Oeste 36 Oeste 0 -- -- 74
2019-07-28 23:00:00 23.3 26 Oeste 39 Oeste 0 -- -- 69
2019-07-28 22:00:00 24.7 22 Oeste 33 Oeste 0 -- -- 62
2019-07-28 21:00:00 27.5 15 Oeste 32 Oeste 0 -- -- 54
2019-07-28 20:00:00 29.5 19 Oeste 31 Sudoeste 0 -- -- 48
2019-07-28 19:00:00 30.5 22 Sudoeste 34 Sudoeste 0 -- -- 45
2019-07-28 18:00:00 31.3 21 Sudoeste 39 Sudoeste 0 -- -- 42
2019-07-28 17:00:00 30.9 28 Sudoeste 45 Sudoeste 0 -- -- 44
2019-07-28 16:00:00 30.9 28 Sudoeste 40 Oeste 0 -- -- 43
2019-07-28 15:00:00 30.7 22 Oeste 43 Sudoeste 0 -- -- 45
2019-07-28 14:00:00 30.1 25 Sudoeste 41 Sudoeste 0 -- -- 47
2019-07-28 13:00:00 28.7 26 Sudoeste 40 Sudoeste 0 -- -- 53
2019-07-28 12:00:00 27.4 26 Oeste 37 Oeste 0 -- -- 56
2019-07-28 11:00:00 26 17 Oeste 39 Sudoeste 0 -- -- 63
2019-07-28 10:00:00 24.4 13 Oeste 29 Noroeste 0 -- -- 68
2019-07-28 09:00:00 22.6 14 Noroeste 24 Noroeste 0 -- -- 72
2019-07-28 08:00:00 20.8 10 Noroeste 25 Noroeste 0 -- -- 80
2019-07-28 07:00:00 20.6 15 Noroeste 25 Noroeste 0 -- -- 82
2019-07-28 06:00:00 20.5 13 Oeste 22 Oeste 0 -- -- 84
2019-07-28 05:00:00 20.6 14 Oeste 21 Oeste 0 -- -- 83
2019-07-28 04:00:00 21.2 11 Oeste 27 Oeste 0 -- -- 81
2019-07-28 03:00:00 22 19 Oeste 30 Oeste 0 -- -- 79
2019-07-28 02:00:00 22.7 12 Oeste 24 Sudoeste 0 -- -- 79
2019-07-28 01:00:00 22.8 9 Oeste 17 Oeste 0 -- -- 81
2019-07-28 00:00:00 22.9 10 Oeste 28 Oeste 0 -- -- 79
2019-07-27 23:00:00 23.1 18 Oeste 31 Oeste 0 -- -- 77
2019-07-26 12:00:00 -- -- -- -- -- -- -- -- --
2019-07-26 11:00:00 26.6 20 Oeste 38 Oeste 0 -- -- 71
2019-07-26 10:00:00 25 26 Oeste 41 Oeste 0 -- -- 75
2019-07-26 09:00:00 23.3 12 Oeste 27 Oeste 0 -- -- 81
2019-07-26 08:00:00 21.1 6 Oeste 17 Sudoeste 0 -- -- 87
2019-07-26 07:00:00 20.9 11 Oeste 23 Oeste 0 -- -- 86
2019-07-26 06:00:00 20.9 17 Oeste 30 Sudoeste 0 -- -- 86
2019-07-26 05:00:00 21.5 15 Oeste 27 Oeste 0 -- -- 83
2019-07-26 04:00:00 21.7 12 Oeste 24 Oeste 0 -- -- 84
2019-07-26 03:00:00 22.2 14 Noroeste 23 Oeste 0 -- -- 82
2019-07-26 02:00:00 22.5 7 Sudoeste 19 Sudoeste 0 -- -- 83
2019-07-26 01:00:00 23.1 10 Oeste 15 Oeste 0 -- -- 81
2019-07-26 00:00:00 24 4 Norte 17 Sur 0 -- -- 78
2019-07-25 23:00:00 24.1 0 Calma 11 Sur 0 -- -- 77
2019-07-25 22:00:00 24.2 6 Oeste 12 Oeste 0 -- -- 80
2019-07-25 21:00:00 25.7 0 Calma 9 Nordeste 0 -- -- 81
2019-07-25 20:00:00 26.1 5 Nordeste 10 Nordeste 0 -- -- 79
2019-07-25 19:00:00 25.8 6 Nordeste 10 Nordeste 0 -- -- 79
2019-07-25 18:00:00 26.9 5 Este 9 Sudeste 0 -- -- 76
2019-07-25 17:00:00 26.6 8 Sudeste 12 Sur 0 -- -- 78
2019-07-25 16:00:00 26.3 8 Sudeste 15 Sur 0 -- -- 79
2019-07-25 15:00:00 25.9 13 Sur 20 Sur 0 -- -- 82
2019-07-25 14:00:00 26.1 14 Sur 18 Sur 0 -- -- 81
2019-07-25 13:00:00 25.6 12 Sur 16 Sudeste 0 -- -- 81
2019-07-25 12:00:00 25.9 10 Sudeste 12 Sur 0 -- -- 80
2019-07-25 11:00:00 26.3 5 Sudeste 7 Sudeste 0 -- -- 77
2019-07-25 10:00:00 24.7 5 Norte 13 Noroeste 0 -- -- 77
2019-07-25 09:00:00 21.6 8 Noroeste 17 Norte 0 -- -- 81
2019-07-25 08:00:00 19.9 10 Noroeste 17 Noroeste 0 -- -- 84
2019-07-25 07:00:00 20.1 10 Noroeste 15 Noroeste 0 -- -- 87
2019-07-25 06:00:00 20.7 7 Noroeste 11 Noroeste 0 -- -- 88
2019-07-25 05:00:00 21.1 8 Noroeste 12 Noroeste 0 -- -- 87
2019-07-25 04:00:00 21.8 6 Noroeste 9 Noroeste 0 -- -- 91
2019-07-25 03:00:00 21.4 6 Oeste 12 Sur 0 -- -- 90
2019-07-25 02:00:00 21.7 4 Oeste 12 Sur 0 -- -- 83
2019-07-25 01:00:00 23 5 Norte 7 Noroeste 0 -- -- 86
2019-07-25 00:00:00 22.8 2 Noroeste 6 Norte 0 -- -- 82
2019-07-24 23:00:00 23.9 2 Nordeste 7 Nordeste 0 -- -- 80
2019-07-24 22:00:00 24.7 4 Nordeste 9 Norte 0 -- -- 82
2019-07-24 21:00:00 25.7 6 Nordeste 12 Este 0 -- -- 78
2019-07-24 20:00:00 26.8 6 Este 12 Este 0 -- -- 74
2019-07-24 19:00:00 27.4 7 Este 13 Nordeste 0 -- -- 72
2019-07-24 18:00:00 27.3 6 Nordeste 15 Nordeste 0 -- -- 72
2019-07-24 17:00:00 27.8 8 Nordeste 13 Este 0 -- -- 70
2019-07-24 16:00:00 28.5 7 Nordeste 14 Este 0 -- -- 69
2019-07-24 15:00:00 28.7 8 Nordeste 15 Este 0 -- -- 68
2019-07-24 14:00:00 28.6 8 Nordeste 15 Este 0 -- -- 71
2019-07-24 13:00:00 26.4 10 Nordeste 16 Este 0 -- -- 77
2019-07-24 12:00:00 25.6 9 Nordeste 16 Nordeste 0 -- -- 81
2019-07-24 11:00:00 25.3 9 Nordeste 15 Nordeste 0 -- -- 82
2019-07-24 10:00:00 25.2 7 Nordeste 13 Noroeste 0 -- -- 82
2019-07-24 09:00:00 23 8 Noroeste 15 Noroeste 0 -- -- 89
2019-07-24 08:00:00 21.6 9 Noroeste 17 Norte 0 -- -- 93
2019-07-24 07:00:00 21.8 8 Noroeste 14 Noroeste 0 -- -- 94
2019-07-24 06:00:00 22.6 6 Noroeste 10 Noroeste 0 -- -- 93
2019-07-24 05:00:00 23.1 5 Norte 11 Norte 0 -- -- 93
2019-07-24 04:00:00 22.6 6 Norte 12 Nordeste 0 -- -- 94
2019-07-24 03:00:00 22.4 6 Nordeste 14 Este 0 -- -- 93
2019-07-24 02:00:00 22.8 7 Nordeste 16 Norte 0 -- -- 93
2019-07-24 01:00:00 23 9 Nordeste 17 Nordeste 0 -- -- 92
2019-07-24 00:00:00 23.6 9 Nordeste 17 Nordeste 0 -- -- 90
2019-07-23 23:00:00 23.8 10 Nordeste 17 Norte 0 -- -- 90
2019-07-23 22:00:00 24 11 Nordeste 15 Nordeste 0 -- -- 88
2019-07-23 21:00:00 24.7 8 Nordeste 12 Nordeste 0 -- -- 84
2019-07-23 20:00:00 25.5 8 Nordeste 14 Nordeste 0 -- -- 81
2019-07-23 19:00:00 25.9 8 Nordeste 16 Nordeste 0 -- -- 78
2019-07-23 18:00:00 28.3 7 Nordeste 14 Este 0 -- -- 69
2019-07-23 17:00:00 26.2 8 Nordeste 19 Nordeste 0 -- -- 77
2019-07-23 16:00:00 27.1 8 Nordeste 21 Nordeste 0 -- -- 75
2019-07-23 15:00:00 27.9 9 Nordeste 17 Este 0 -- -- 72
2019-07-23 14:00:00 27.7 9 Nordeste 18 Nordeste 0 -- -- 72
2019-07-23 13:00:00 27.4 9 Nordeste 15 Nordeste 0 -- -- 72
2019-07-23 12:00:00 27.1 9 Este 17 Este 0 -- -- 72
2019-07-23 11:00:00 26 16 Este 27 Este 0 -- -- 78
2019-07-23 10:00:00 24.7 8 Nordeste 15 Nordeste 0 -- -- 83
2019-07-23 09:00:00 23.4 9 Nordeste 14 Nordeste 0 -- -- 86
2019-07-23 08:00:00 23.4 7 Nordeste 12 Nordeste 0 -- -- 88
2019-07-23 07:00:00 23.6 8 Nordeste 12 Nordeste 0 -- -- 89
2019-07-23 06:00:00 23.3 6 Norte 8 Norte 0 -- -- 93
2019-07-23 05:00:00 23.4 4 Nordeste 8 Nordeste 0 -- -- 92
2019-07-23 04:00:00 23.3 4 Nordeste 6 Nordeste 0 -- -- 92
2019-07-23 03:00:00 22.8 0 Calma 10 Este 0 -- -- 91
2019-07-23 02:00:00 23 10 Este 15 Este 0 -- -- 90
2019-07-23 01:00:00 23.1 9 Este 25 Nordeste 0 -- -- 89
2019-07-23 00:00:00 23.2 15 Nordeste 27 Este 0 -- -- 89
2019-07-22 23:00:00 22.9 14 Nordeste 21 Nordeste 0 -- -- 90
2019-07-22 22:00:00 22.5 13 Nordeste 20 Nordeste 0 -- -- 91
2019-07-22 21:00:00 24.3 9 Nordeste 15 Este 0 -- -- 84
2019-07-22 20:00:00 24.6 5 Nordeste 12 Este 0 -- -- 82
2019-07-22 19:00:00 26.2 7 Nordeste 14 Nordeste 0 -- -- 77
2019-07-22 18:00:00 26.1 12 Nordeste 22 Este 0 -- -- 78
2019-07-22 17:00:00 26.6 10 Este 21 Este 0 -- -- 75
2019-07-22 16:00:00 26.6 15 Este 19 Este 0 -- -- 77
2019-07-22 15:00:00 26.8 7 Este 17 Este 0 -- -- 74
2019-07-22 14:00:00 27.1 8 Este 15 Nordeste 0 -- -- 75
2019-07-22 13:00:00 27.1 7 Nordeste 17 Este 0 -- -- 75
2019-07-22 12:00:00 26.7 8 Este 16 Este 0 -- -- 79
2019-07-22 11:00:00 25.5 8 Nordeste 19 Nordeste 0 -- -- 83
2019-07-22 10:00:00 23 12 Nordeste 16 Nordeste 0 -- -- 90
2019-07-22 09:00:00 22.4 8 Nordeste 13 Nordeste 0 -- -- 93
2019-07-22 08:00:00 22.6 10 Nordeste 14 Nordeste 0 -- -- 95
2019-07-22 07:00:00 22.5 9 Nordeste 14 Nordeste 0 -- -- 94
2019-07-22 06:00:00 23.1 5 Norte 10 Nordeste 0 -- -- 94
2019-07-22 05:00:00 23.1 8 Este 20 Este 0 -- -- 93
2019-07-22 04:00:00 22.3 9 Nordeste 18 Este 0 -- -- 93
2019-07-22 03:00:00 22.4 8 Nordeste 15 Nordeste 0 -- -- 93
2019-07-22 02:00:00 22.4 8 Nordeste 16 Nordeste 0 -- -- 91
2019-07-22 01:00:00 22.4 11 Nordeste 18 Nordeste 0 -- -- 90
2019-07-22 00:00:00 22.4 12 Nordeste 20 Nordeste 0 -- -- 89
2019-07-21 23:00:00 22.3 11 Nordeste 17 Nordeste 0 -- -- 91
2019-07-21 22:00:00 23.4 10 Nordeste 14 Nordeste 0 -- -- 88
2019-07-21 21:00:00 24.8 6 Nordeste 9 Nordeste 0 -- -- 84
2019-07-21 20:00:00 25.5 5 Nordeste 10 Nordeste 0 -- -- 81
2019-07-21 19:00:00 26.3 7 Nordeste 11 Nordeste 0 -- -- 80
2019-07-21 18:00:00 26.1 8 Nordeste 12 Nordeste 0 -- -- 81
2019-07-21 17:00:00 26.6 6 Nordeste 13 Nordeste 0 -- -- 79
2019-07-21 16:00:00 26.4 9 Nordeste 14 Este 0 -- -- 78
2019-07-21 15:00:00 26.3 9 Nordeste 15 Nordeste 0 -- -- 76
2019-07-21 14:00:00 26.3 9 Nordeste 14 Nordeste 0 -- -- 75
2019-07-21 13:00:00 25.7 8 Nordeste 13 Nordeste 0 -- -- 77
2019-07-21 12:00:00 24.4 5 Nordeste 12 Nordeste 0 -- -- 80
2019-07-21 11:00:00 23.4 6 Nordeste 14 Nordeste 0 -- -- 84
2019-07-21 10:00:00 22.5 10 Nordeste 14 Nordeste 0 -- -- 84
2019-07-21 09:00:00 23.5 5 Norte 7 Norte 0 -- -- 86
2019-07-21 08:00:00 20.4 0 Calma 4 Norte 0 -- -- 90
2019-07-21 07:00:00 20.4 3 Sudoeste 5 Sudoeste 0 -- -- 90
2019-07-21 06:00:00 21 2 Oeste 8 Noroeste 0 -- -- 87
2019-07-21 05:00:00 22 5 Noroeste 9 Noroeste 0 -- -- 88
2019-07-21 04:00:00 22.9 8 Noroeste 11 Noroeste 0 -- -- 85
2019-07-21 03:00:00 22.9 7 Noroeste 9 Noroeste 0 -- -- 87
2019-07-21 02:00:00 22 3 Noroeste 7 Sur 0 -- -- 86
2019-07-21 01:00:00 22.2 2 Noroeste 3 Noroeste 0 -- -- 84
2019-07-21 00:00:00 22.5 0 Calma 7 Norte 0 -- -- 81